Time;durP1;ratioP1;P1;durP2;ratioP2;P2;SDS_P1;SDS_P2;PMS_P1;PMS_P2;Temp;Humidity;BMP_temperature;BMP_pressure;BME280_temperature;BME280_humidity;BME280_pressure;Samples;Min_cycle;Max_cycle;Signal;HPM_P1;HPM_P2
2023/08/05 00:01:46;;;;;;;10.80;9.00;;;;;;;19.50;100.00;100518.77;104879;1260;72456;-62
2023/08/05 00:04:13;;;;;;;11.60;8.60;;;;;;;19.48;100.00;100522.23;105011;1263;61175;-63
2023/08/05 00:06:40;;;;;;;10.00;8.60;;;;;;;19.46;100.00;100522.97;104921;1259;61227;-63
2023/08/05 00:09:07;;;;;;;11.10;8.60;;;;;;;19.40;100.00;100526.04;104976;1260;74747;-63
2023/08/05 00:11:34;;;;;;;12.40;8.70;;;;;;;19.34;100.00;100524.55;104942;1263;66137;-63
2023/08/05 00:14:01;;;;;;;9.20;7.60;;;;;;;19.30;100.00;100527.20;104654;1261;72801;-62
2023/08/05 00:16:28;;;;;;;9.20;7.60;;;;;;;19.25;100.00;100527.48;105024;1263;61243;-64
2023/08/05 00:18:55;;;;;;;9.30;8.30;;;;;;;19.22;100.00;100527.84;104916;1263;61363;-62
2023/08/05 00:21:23;;;;;;;9.80;8.80;;;;;;;19.19;100.00;100524.87;104822;1260;74488;-61
2023/08/05 00:23:49;;;;;;;10.40;8.60;;;;;;;19.17;100.00;100523.41;104924;1261;67121;-62
2023/08/05 00:26:16;;;;;;;10.40;9.00;;;;;;;19.14;100.00;100521.72;105242;1260;72824;-65
2023/08/05 00:28:43;;;;;;;10.50;9.20;;;;;;;19.13;100.00;100521.17;104881;1260;61560;-62
2023/08/05 00:31:10;;;;;;;10.10;8.40;;;;;;;19.12;100.00;100521.55;104915;1260;61253;-66
2023/08/05 00:33:38;;;;;;;10.90;9.10;;;;;;;19.09;100.00;100523.05;105070;1262;74722;-61
2023/08/05 00:36:05;;;;;;;10.80;8.20;;;;;;;19.07;100.00;100522.26;105056;1260;67302;-61
2023/08/05 00:38:31;;;;;;;14.80;8.80;;;;;;;19.07;100.00;100520.83;104761;1264;72677;-65
2023/08/05 00:40:59;;;;;;;9.30;7.70;;;;;;;19.07;100.00;100525.16;104877;1260;62881;-63
2023/08/05 00:43:25;;;;;;;9.30;8.10;;;;;;;19.06;100.00;100523.30;104641;1264;61273;-61
2023/08/05 00:45:52;;;;;;;10.30;8.50;;;;;;;19.05;100.00;100522.58;104944;1260;74109;-61
2023/08/05 00:48:19;;;;;;;11.10;8.60;;;;;;;19.04;100.00;100522.40;104624;1260;67253;-62
2023/08/05 00:50:46;;;;;;;10.40;9.20;;;;;;;19.03;100.00;100521.58;105273;1260;72681;-66
2023/08/05 00:53:14;;;;;;;10.20;8.90;;;;;;;19.01;100.00;100524.33;104608;1263;63044;-62
2023/08/05 00:55:41;;;;;;;9.70;8.70;;;;;;;19.01;100.00;100523.23;104959;1264;61455;-62
2023/08/05 00:58:09;;;;;;;11.40;9.60;;;;;;;19.03;100.00;100519.80;104946;1263;73393;-63
2023/08/05 01:00:35;;;;;;;10.10;8.90;;;;;;;19.03;100.00;100522.75;104951;1260;67086;-64
2023/08/05 01:03:04;;;;;;;10.70;8.80;;;;;;;19.02;100.00;100525.86;105177;1260;72489;-66
2023/08/05 01:05:31;;;;;;;9.90;8.90;;;;;;;19.01;100.00;100524.52;104701;1260;61286;-62
2023/08/05 01:07:58;;;;;;;13.60;8.80;;;;;;;18.98;100.00;100524.39;104814;1262;61281;-63
2023/08/05 01:10:25;;;;;;;9.70;8.70;;;;;;;18.96;100.00;100526.40;104826;1261;74578;-64
2023/08/05 01:12:52;;;;;;;11.30;9.20;;;;;;;18.94;100.00;100530.36;104782;1262;65922;-63
2023/08/05 01:15:19;;;;;;;11.70;9.10;;;;;;;18.90;100.00;100532.78;104928;1262;71265;-67
2023/08/05 01:17:46;;;;;;;12.90;9.30;;;;;;;18.87;100.00;100537.04;104724;1260;61989;-62
2023/08/05 01:20:13;;;;;;;12.80;10.00;;;;;;;18.85;100.00;100535.71;104986;1264;61221;-62
2023/08/05 01:22:42;;;;;;;13.60;10.30;;;;;;;18.85;100.00;100538.52;104872;1262;74703;-64
2023/08/05 01:25:23;;;;;;;11.60;10.20;;;;;;;18.84;100.00;100541.03;105205;1265;65999;-68
2023/08/05 01:27:50;;;;;;;9.70;8.30;;;;;;;18.81;100.00;100537.27;104854;1265;72843;-62
2023/08/05 01:30:17;;;;;;;11.10;9.10;;;;;;;18.78;100.00;100534.30;105021;1260;61262;-63
2023/08/05 01:32:45;;;;;;;9.90;8.90;;;;;;;18.78;100.00;100541.73;104866;1263;61251;-63
2023/08/05 01:35:12;;;;;;;11.50;9.70;;;;;;;18.75;100.00;100548.38;105391;1262;74689;-66
2023/08/05 01:37:39;;;;;;;10.40;9.20;;;;;;;18.73;100.00;100549.35;104852;1261;65903;-62
2023/08/05 01:40:08;;;;;;;10.40;8.90;;;;;;;18.70;100.00;100547.70;104847;1260;71437;-63
2023/08/05 01:42:34;;;;;;;10.50;9.20;;;;;;;18.70;100.00;100550.34;104913;1260;61342;-62
2023/08/05 01:45:02;;;;;;;11.40;10.00;;;;;;;18.72;100.00;100551.77;105330;1263;61263;-66
2023/08/05 01:47:30;;;;;;;12.70;9.30;;;;;;;18.73;100.00;100553.69;104945;1259;75168;-62
2023/08/05 01:49:57;;;;;;;11.20;9.20;;;;;;;18.72;100.00;100557.20;104831;1264;65793;-62
2023/08/05 01:52:24;;;;;;;10.70;8.60;;;;;;;18.71;100.00;100558.75;104907;1260;71710;-63
2023/08/05 01:54:51;;;;;;;12.00;9.80;;;;;;;18.70;100.00;100559.20;104953;1264;61198;-62
2023/08/05 01:57:18;;;;;;;10.80;8.60;;;;;;;18.69;100.00;100558.79;105125;1260;61237;-66
2023/08/05 01:59:45;;;;;;;9.50;7.80;;;;;;;18.66;100.00;100563.85;104529;1260;73504;-62
2023/08/05 02:02:12;;;;;;;10.00;9.00;;;;;;;18.62;100.00;100566.60;104871;1261;65677;-61
2023/08/05 02:04:39;;;;;;;10.70;9.70;;;;;;;18.59;100.00;100564.94;104856;1259;72713;-62
2023/08/05 02:07:06;;;;;;;13.00;9.00;;;;;;;18.57;100.00;100562.54;104968;1260;61247;-63
2023/08/05 02:09:33;;;;;;;14.20;9.50;;;;;;;18.56;100.00;100565.36;104972;1260;61221;-66
2023/08/05 02:12:00;;;;;;;12.10;10.20;;;;;;;18.56;100.00;100570.52;104606;1266;72511;-62
2023/08/05 02:14:27;;;;;;;12.00;8.70;;;;;;;18.55;100.00;100568.38;104874;1260;66406;-63
2023/08/05 02:16:55;;;;;;;10.90;9.10;;;;;;;18.55;100.00;100568.48;104893;1260;72742;-62
2023/08/05 02:19:22;;;;;;;10.80;9.70;;;;;;;18.57;100.00;100570.39;105339;1259;61817;-66
2023/08/05 02:21:49;;;;;;;13.00;10.60;;;;;;;18.58;100.00;100571.58;105073;1260;61279;-64
2023/08/05 02:24:16;;;;;;;11.40;10.10;;;;;;;18.59;100.00;100569.69;104876;1259;74757;-66
2023/08/05 02:26:43;;;;;;;11.10;9.60;;;;;;;18.62;100.00;100568.82;104954;1259;67201;-64
2023/08/05 02:29:10;;;;;;;12.10;9.40;;;;;;;18.65;100.00;100575.39;105010;1259;72701;-63
2023/08/05 02:31:37;;;;;;;11.20;10.00;;;;;;;18.68;100.00;100577.82;104839;1260;62033;-62
2023/08/05 02:34:04;;;;;;;14.30;10.20;;;;;;;18.71;100.00;100580.73;104957;1259;61241;-62
2023/08/05 02:36:31;;;;;;;12.40;11.10;;;;;;;18.75;100.00;100583.44;104922;1263;74533;-62
2023/08/05 02:38:58;;;;;;;13.20;10.50;;;;;;;18.78;100.00;100587.00;104725;1261;65241;-62
2023/08/05 02:41:25;;;;;;;12.60;9.90;;;;;;;18.81;100.00;100586.29;104917;1260;71723;-65
2023/08/05 02:43:53;;;;;;;13.60;10.00;;;;;;;18.88;100.00;100582.98;105081;1264;61911;-66
2023/08/05 02:46:20;;;;;;;11.20;10.10;;;;;;;18.95;100.00;100580.48;104863;1264;61259;-62
2023/08/05 02:48:47;;;;;;;14.80;11.00;;;;;;;19.01;100.00;100580.09;104494;1267;74521;-62
2023/08/05 02:51:14;;;;;;;11.80;9.90;;;;;;;19.05;100.00;100579.38;105140;1264;67282;-67
2023/08/05 02:53:41;;;;;;;12.10;9.80;;;;;;;19.08;100.00;100582.14;104871;1260;73246;-62
2023/08/05 02:56:08;;;;;;;14.90;10.70;;;;;;;19.13;100.00;100588.06;105094;1260;61995;-67
2023/08/05 02:58:35;;;;;;;12.70;11.00;;;;;;;19.19;100.00;100586.36;104886;1259;61331;-62
2023/08/05 03:01:08;;;;;;;13.70;10.80;;;;;;;19.29;100.00;100585.45;104852;1259;72847;-62
2023/08/05 03:03:36;;;;;;;10.60;9.00;;;;;;;19.38;100.00;100585.89;104742;1265;65761;-62
2023/08/05 03:06:04;;;;;;;10.90;9.70;;;;;;;19.47;100.00;100584.59;105278;1260;72206;-67
2023/08/05 03:08:31;;;;;;;11.00;9.90;;;;;;;19.63;100.00;100586.10;104808;1259;62027;-63
2023/08/05 03:10:59;;;;;;;11.70;10.40;;;;;;;19.84;100.00;100584.23;104882;1260;61161;-62
2023/08/05 03:13:26;;;;;;;12.80;9.90;;;;;;;20.12;100.00;100585.02;104867;1260;73477;-61
2023/08/05 03:15:54;;;;;;;13.00;10.80;;;;;;;20.65;100.00;100583.41;104907;1260;67211;-62
2023/08/05 03:18:21;;;;;;;11.70;9.60;;;;;;;21.24;100.00;100580.39;105025;1260;72378;-64
2023/08/05 03:20:48;;;;;;;11.10;9.60;;;;;;;21.89;100.00;100584.35;104954;1264;61252;-63
2023/08/05 03:23:17;;;;;;;12.40;10.40;;;;;;;22.41;100.00;100578.06;105085;1263;61357;-66
2023/08/05 03:25:47;;;;;;;10.20;9.20;;;;;;;22.84;100.00;100573.38;104751;1265;75334;-62
2023/08/05 03:28:15;;;;;;;11.40;9.80;;;;;;;23.44;100.00;100566.52;105051;1260;67219;-67
2023/08/05 03:30:46;;;;;;;14.70;10.60;;;;;;;24.31;100.00;100560.13;104469;1261;71589;-62
2023/08/05 03:33:17;;;;;;;10.20;8.90;;;;;;;25.26;100.00;100549.40;105221;1259;62050;-66
2023/08/05 03:35:45;;;;;;;9.80;8.90;;;;;;;26.25;100.00;100529.75;104863;1260;61233;-62
2023/08/05 03:38:15;;;;;;;10.60;9.50;;;;;;;27.19;100.00;100511.08;104808;1262;73167;-61
2023/08/05 03:40:42;;;;;;;10.20;9.20;;;;;;;28.03;100.00;100495.89;104864;1263;66145;-61
2023/08/05 03:43:09;;;;;;;9.70;8.80;;;;;;;28.63;100.00;100475.27;105091;1264;72701;-63
2023/08/05 03:45:36;;;;;;;9.90;9.00;;;;;;;29.19;100.00;100463.02;104465;1260;61283;-62
2023/08/05 03:48:03;;;;;;;9.70;8.80;;;;;;;29.91;100.00;100454.63;104861;1260;61279;-62
2023/08/05 03:50:30;;;;;;;8.70;7.70;;;;;;;30.73;100.00;100454.63;104779;1260;72605;-61
2023/08/05 03:52:58;;;;;;;10.10;9.00;;;;;;;31.57;100.00;100454.56;104818;1260;67376;-62
2023/08/05 03:55:25;;;;;;;8.80;8.00;;;;;;;32.09;100.00;100456.38;104918;1260;73405;-62
2023/08/05 03:57:51;;;;;;;8.50;7.60;;;;;;;32.46;100.00;100458.46;104773;1265;61229;-61
2023/08/05 04:00:19;;;;;;;9.40;8.10;;;;;;;32.71;100.00;100461.77;105121;1264;61263;-66
2023/08/05 04:02:46;;;;;;;8.20;7.40;;;;;;;32.90;100.00;100463.98;104951;1259;73457;-60
2023/08/05 04:05:13;;;;;;;10.80;7.40;;;;;;;33.12;100.00;100466.60;104578;1263;67229;-66
2023/08/05 04:07:40;;;;;;;9.20;6.90;;;;;;;33.32;100.00;100462.98;104627;1260;71438;-60
2023/08/05 04:10:07;;;;;;;7.20;6.50;;;;;;;33.54;100.00;100462.48;104924;1260;61256;-62
2023/08/05 04:12:35;;;;;;;8.20;7.30;;;;;;;33.90;100.00;100463.27;104977;1260;61366;-63
2023/08/05 04:15:03;;;;;;;7.70;7.00;;;;;;;34.29;100.00;100461.45;104860;1260;65723;-63
2023/08/05 04:17:31;;;;;;;8.30;7.10;;;;;;;34.63;99.78;100465.65;104893;1260;66780;-61
2023/08/05 04:20:00;;;;;;;8.20;7.30;;;;;;;34.92;95.83;100467.45;104875;1260;72529;-61
2023/08/05 04:22:27;;;;;;;7.80;7.00;;;;;;;35.15;92.33;100467.35;105000;1260;61232;-64
2023/08/05 04:24:54;;;;;;;8.20;7.40;;;;;;;35.51;88.85;100469.20;104861;1260;61356;-61
2023/08/05 04:27:21;;;;;;;8.50;7.70;;;;;;;35.95;83.70;100474.39;104888;1259;64715;-63
2023/08/05 04:29:49;;;;;;;8.20;7.40;;;;;;;36.30;77.85;100472.56;104965;1260;61761;-63
2023/08/05 04:32:16;;;;;;;7.60;6.80;;;;;;;36.55;73.05;100479.36;106195;1260;64374;-60
2023/08/05 04:34:44;;;;;;;9.20;8.30;;;;;;;36.71;69.58;100483.63;104802;1263;61292;-62
2023/08/05 04:37:20;;;;;;;9.60;8.80;;;;;;;36.79;66.42;100483.41;105186;1262;61266;-62
2023/08/05 04:39:47;;;;;;;9.00;8.10;;;;;;;36.82;63.97;100482.31;104860;1260;64747;-62
2023/08/05 04:42:14;;;;;;;8.20;7.50;;;;;;;36.77;63.09;100482.97;104923;1260;61452;-62
2023/08/05 04:44:41;;;;;;;10.10;9.10;;;;;;;36.74;64.33;100487.50;105065;1260;64317;-63
2023/08/05 04:47:09;;;;;;;10.10;9.20;;;;;;;36.93;64.23;100488.36;104770;1264;61126;-65
2023/08/05 04:49:38;;;;;;;9.10;8.20;;;;;;;37.26;62.17;100485.95;104914;1259;61210;-64
2023/08/05 04:52:06;;;;;;;9.80;8.70;;;;;;;37.72;60.02;100478.61;105509;1259;66752;-63
2023/08/05 04:54:46;;;;;;;10.10;9.30;;;;;;;38.22;56.18;100478.02;104953;1260;61248;-62
2023/08/05 04:57:13;;;;;;;10.90;9.90;;;;;;;38.59;52.72;100479.19;104789;1267;64098;-63
2023/08/05 04:59:40;;;;;;;10.50;9.50;;;;;;;38.83;50.09;100479.16;104893;1260;61257;-62
2023/08/05 05:02:07;;;;;;;9.70;8.80;;;;;;;39.07;47.33;100477.81;105235;1259;61378;-61
2023/08/05 05:04:34;;;;;;;10.10;9.30;;;;;;;39.20;45.61;100481.34;104974;1260;64953;-63
2023/08/05 05:07:02;;;;;;;11.20;8.40;;;;;;;39.28;45.39;100479.98;104949;1260;61919;-62
2023/08/05 05:09:29;;;;;;;10.00;9.00;;;;;;;39.20;43.41;100480.95;104925;1260;62695;-66
2023/08/05 05:11:56;;;;;;;8.80;7.90;;;;;;;38.94;43.08;100482.96;104700;1260;61682;-61
2023/08/05 05:14:23;;;;;;;8.20;7.40;;;;;;;38.73;42.92;100480.88;104943;1261;61624;-63
2023/08/05 05:16:50;;;;;;;8.40;7.50;;;;;;;38.55;44.33;100474.70;104794;1260;435828;-62
2023/08/05 05:19:18;;;;;;;8.40;7.30;;;;;;;38.59;45.98;100473.20;105060;1265;61424;-66
2023/08/05 05:21:45;;;;;;;8.30;7.50;;;;;;;38.75;44.97;100474.99;104902;1259;74091;-61
2023/08/05 05:24:12;;;;;;;7.90;7.10;;;;;;;38.89;44.22;100475.27;104904;1264;61264;-61
2023/08/05 05:26:39;;;;;;;10.00;7.10;;;;;;;38.92;44.06;100473.44;104852;1260;61182;-61
2023/08/05 05:29:06;;;;;;;9.80;6.90;;;;;;;38.98;42.56;100471.33;104828;1259;66168;-62
2023/08/05 05:31:33;;;;;;;8.90;7.50;;;;;;;39.00;41.02;100469.64;104849;1264;61251;-63
2023/08/05 05:34:00;;;;;;;7.70;7.00;;;;;;;39.09;41.81;100470.60;104872;1260;64863;-62
2023/08/05 05:36:28;;;;;;;8.30;7.40;;;;;;;39.26;40.34;100468.64;105026;1263;61250;-66
2023/08/05 05:38:55;;;;;;;7.80;7.00;;;;;;;39.29;39.28;100466.98;104884;1261;61289;-62
2023/08/05 05:41:22;;;;;;;7.90;7.20;;;;;;;39.22;38.65;100464.23;105082;1261;66296;-62
2023/08/05 05:43:49;;;;;;;8.70;7.80;;;;;;;39.06;38.72;100471.81;104976;1260;59685;-62
2023/08/05 05:46:19;;;;;;;8.20;7.40;;;;;;;38.82;39.98;100470.80;104929;1260;64044;-61
2023/08/05 05:48:46;;;;;;;8.80;7.90;;;;;;;38.87;40.08;100470.10;104936;1260;62042;-61
2023/08/05 05:51:13;;;;;;;8.20;7.40;;;;;;;38.92;40.33;100471.88;105302;1263;61280;-66
2023/08/05 05:53:40;;;;;;;8.70;8.00;;;;;;;39.10;40.50;100470.39;104813;1264;66666;-61
2023/08/05 05:56:07;;;;;;;8.60;7.90;;;;;;;39.10;39.82;100467.67;104886;1260;61258;-61
2023/08/05 05:58:35;;;;;;;8.00;7.30;;;;;;;38.99;41.28;100467.45;104981;1259;64049;-62
2023/08/05 06:01:02;;;;;;;8.50;7.70;;;;;;;38.96;41.40;100466.47;104853;1260;59972;-60
2023/08/05 06:03:31;;;;;;;8.70;7.90;;;;;;;38.88;40.58;100463.96;104746;1260;61230;-60
2023/08/05 06:05:59;;;;;;;;;;;;;;;38.93;40.23;100461.92;104960;1260;64894;-61
2023/08/05 06:08:29;;;;;;;8.60;7.20;;;;;;;38.88;39.43;100466.60;105134;1263;61286;-66
2023/08/05 06:11:01;;;;;;;8.70;7.90;;;;;;;38.64;41.24;100463.08;104902;1259;63042;-60
2023/08/05 06:13:29;;;;;;;9.00;7.80;;;;;;;38.72;44.09;100465.52;105002;1260;61254;-63
2023/08/05 06:15:56;;;;;;;8.00;7.30;;;;;;;39.03;40.76;100466.80;104948;1260;61254;-62
2023/08/05 06:18:23;;;;;;;7.80;6.90;;;;;;;39.20;39.83;100463.89;104876;1259;66082;-66
2023/08/05 06:20:50;;;;;;;7.10;6.40;;;;;;;39.38;38.73;100465.89;104836;1260;61321;-62
2023/08/05 06:23:17;;;;;;;6.90;6.30;;;;;;;39.42;36.38;100467.89;104689;1260;63979;-61
2023/08/05 06:25:45;;;;;;;6.90;6.30;;;;;;;39.29;35.50;100467.52;104994;1260;61381;-63
2023/08/05 06:28:12;;;;;;;8.10;6.70;;;;;;;39.17;36.76;100464.70;104818;1265;61204;-63
2023/08/05 06:30:45;;;;;;;7.30;6.60;;;;;;;39.14;37.09;100462.64;105145;1263;66722;-65
2023/08/05 06:33:13;;;;;;;7.80;6.30;;;;;;;39.03;36.85;100461.73;105008;1260;61277;-62
2023/08/05 06:35:40;;;;;;;7.30;6.60;;;;;;;39.09;36.99;100461.56;105105;1260;63385;-62
2023/08/05 06:38:07;;;;;;;6.50;5.70;;;;;;;39.17;37.53;100457.54;104867;1265;61396;-62
2023/08/05 06:40:34;;;;;;;6.80;5.70;;;;;;;39.33;36.53;100456.18;104950;1260;61346;-64
2023/08/05 06:43:01;;;;;;;5.70;5.20;;;;;;;39.42;33.84;100459.01;104907;1264;64547;-63
2023/08/05 06:45:28;;;;;;;5.90;5.30;;;;;;;39.26;33.43;100460.46;104680;1260;61323;-62
2023/08/05 06:47:55;;;;;;;5.80;5.30;;;;;;;39.13;33.25;100456.79;104964;1260;64540;-61
2023/08/05 06:50:22;;;;;;;6.70;5.80;;;;;;;39.13;32.90;100454.14;105182;1264;61120;-62
2023/08/05 06:52:49;;;;;;;6.90;5.60;;;;;;;39.12;33.08;100453.73;104997;1260;61275;-63
2023/08/05 06:55:18;;;;;;;5.90;5.40;;;;;;;39.00;32.69;100458.04;104930;1263;66069;-63
2023/08/05 06:57:48;;;;;;;7.80;5.80;;;;;;;38.77;33.15;100462.23;104804;1263;61174;-63
2023/08/05 07:00:16;;;;;;;7.30;6.00;;;;;;;38.61;34.06;100461.32;104903;1265;62852;-63
2023/08/05 07:02:43;;;;;;;6.30;5.70;;;;;;;38.52;35.77;100464.77;104786;1260;61290;-63
2023/08/05 07:05:10;;;;;;;6.50;5.60;;;;;;;38.52;35.69;100462.05;104999;1260;61407;-63
2023/08/05 07:07:38;;;;;;;6.00;5.40;;;;;;;38.46;35.68;100453.72;104999;1260;66166;-67
2023/08/05 07:10:07;;;;;;;8.00;5.50;;;;;;;38.54;36.25;100455.00;104929;1260;61256;-62
2023/08/05 07:12:34;;;;;;;5.60;5.10;;;;;;;38.52;36.38;100453.58;104976;1260;62844;-66
2023/08/05 07:15:03;;;;;;;6.10;5.40;;;;;;;38.36;37.13;100452.92;104863;1260;61254;-63
2023/08/05 07:17:30;;;;;;;5.50;4.90;;;;;;;38.38;38.03;100454.15;104811;1265;61228;-66
2023/08/05 07:19:58;;;;;;;5.60;5.10;;;;;;;38.40;37.11;100451.62;104776;1260;64627;-62
2023/08/05 07:22:26;;;;;;;6.00;4.90;;;;;;;38.35;37.52;100447.73;105033;1260;61312;-63
2023/08/05 07:24:56;;;;;;;5.60;4.90;;;;;;;38.43;36.70;100447.30;104851;1265;62910;-62
2023/08/05 07:27:23;;;;;;;;;;;;;;;38.33;37.09;100444.41;105181;1260;61282;-64
2023/08/05 07:29:49;;;;;;;4.70;4.30;;;;;;;38.37;39.22;100443.70;104617;1260;61344;-61
2023/08/05 07:32:17;;;;;;;6.20;5.50;;;;;;;38.63;38.33;100442.44;104836;1260;64911;-62
2023/08/05 07:34:43;;;;;;;5.90;4.90;;;;;;;38.72;36.92;100446.52;105636;1264;61342;-65
2023/08/05 07:37:13;;;;;;;6.90;5.50;;;;;;;38.65;36.74;100446.04;105054;1265;71438;-61
2023/08/05 07:39:46;;;;;;;6.10;5.20;;;;;;;38.49;36.55;100441.61;104859;1265;61190;-61
2023/08/05 07:42:15;;;;;;;5.50;5.00;;;;;;;38.30;38.38;100438.14;104712;1260;61309;-62
2023/08/05 07:44:42;;;;;;;5.80;5.20;;;;;;;38.44;40.18;100437.89;104890;1260;64581;-66
2023/08/05 07:47:09;;;;;;;7.60;5.40;;;;;;;38.70;39.12;100438.23;104895;1260;61222;-61
2023/08/05 07:49:37;;;;;;;7.80;5.20;;;;;;;38.94;37.49;100436.85;104815;1259;65243;-61
2023/08/05 07:52:06;;;;;;;6.10;5.00;;;;;;;39.04;37.61;100430.43;104821;1265;61157;-61
2023/08/05 07:54:33;;;;;;;5.40;4.50;;;;;;;39.23;38.63;100430.34;104836;1263;61256;-61
2023/08/05 07:57:00;;;;;;;4.90;4.30;;;;;;;39.53;37.33;100432.06;104891;1260;64897;-61
2023/08/05 07:59:28;;;;;;;6.40;4.70;;;;;;;39.56;35.57;100428.48;104971;1263;61347;-63
2023/08/05 08:01:56;;;;;;;5.10;4.50;;;;;;;39.47;35.53;100423.89;104937;1264;62540;-63
2023/08/05 08:04:23;;;;;;;5.40;4.30;;;;;;;39.57;35.31;100421.51;104919;1265;61222;-63
2023/08/05 08:06:52;;;;;;;6.40;4.70;;;;;;;39.68;34.66;100418.80;104925;1264;61212;-62
2023/08/05 08:09:19;;;;;;;5.70;4.60;;;;;;;39.43;35.47;100421.06;104893;1263;66041;-66
2023/08/05 08:11:46;;;;;;;7.20;5.10;;;;;;;39.24;35.87;100418.90;104998;1265;61296;-62
2023/08/05 08:14:13;;;;;;;6.70;4.80;;;;;;;39.24;36.77;100413.37;104823;1260;64086;-63
2023/08/05 08:16:40;;;;;;;6.30;4.80;;;;;;;39.43;36.85;100414.98;105091;1260;61277;-66
2023/08/05 08:19:08;;;;;;;5.70;4.30;;;;;;;39.51;35.62;100416.69;104935;1264;61224;-62
2023/08/05 08:21:35;;;;;;;6.30;4.10;;;;;;;39.34;35.02;100417.39;104900;1264;66120;-62
2023/08/05 08:24:02;;;;;;;6.00;4.70;;;;;;;39.25;35.41;100416.28;104930;1260;61273;-62
2023/08/05 08:26:29;;;;;;;4.90;4.30;;;;;;;39.27;35.66;100417.40;104953;1260;64172;-63
2023/08/05 08:28:56;;;;;;;9.60;4.30;;;;;;;39.39;34.95;100413.14;104944;1260;61228;-67
2023/08/05 08:31:29;;;;;;;5.20;4.70;;;;;;;39.70;35.38;100412.13;105230;1260;61331;-67
2023/08/05 08:33:56;;;;;;;5.50;4.60;;;;;;;40.01;34.79;100413.21;104858;1260;66514;-61
2023/08/05 08:36:24;;;;;;;5.10;4.10;;;;;;;40.16;34.58;100410.92;105045;1264;61263;-63
2023/08/05 08:38:51;;;;;;;4.50;4.00;;;;;;;40.46;33.15;100412.43;105016;1264;62860;-67
2023/08/05 08:41:18;;;;;;;4.00;3.50;;;;;;;40.66;32.69;100411.46;104562;1260;61400;-65
2023/08/05 08:43:45;;;;;;;4.30;3.70;;;;;;;40.73;32.18;100413.29;104603;1265;61152;-63
2023/08/05 08:46:12;;;;;;;5.30;3.80;;;;;;;40.83;31.61;100407.38;104920;1260;66054;-62
2023/08/05 08:48:39;;;;;;;5.80;4.50;;;;;;;40.98;31.04;100406.27;104708;1260;61285;-67
2023/08/05 08:51:06;;;;;;;5.40;4.10;;;;;;;41.12;30.76;100402.50;104367;1266;64136;-62
2023/08/05 08:53:33;;;;;;;4.60;3.90;;;;;;;41.08;30.27;100398.66;104833;1260;61318;-62
2023/08/05 08:56:01;;;;;;;5.00;3.60;;;;;;;40.99;30.24;100397.92;105017;1260;61244;-63
2023/08/05 08:58:28;;;;;;;4.80;3.90;;;;;;;41.09;29.85;100390.69;104918;1260;66209;-62
2023/08/05 09:00:55;;;;;;;5.00;3.90;;;;;;;41.31;30.56;100392.99;105095;1260;61371;-64
2023/08/05 09:03:24;;;;;;;4.90;4.30;;;;;;;41.71;29.88;100387.88;104742;1260;64114;-65
2023/08/05 09:05:58;;;;;;;8.40;4.10;;;;;;;41.74;28.53;100382.33;104895;1265;61277;-63
2023/08/05 09:08:25;;;;;;;4.70;3.90;;;;;;;41.42;29.23;100384.10;104604;1266;61343;-63
2023/08/05 09:10:52;;;;;;;6.70;4.50;;;;;;;41.26;29.88;100384.63;108631;1259;65869;-63
2023/08/05 09:13:20;;;;;;;5.40;4.00;;;;;;;41.21;30.50;100384.23;104858;1260;66443;-65
2023/08/05 09:15:47;;;;;;;4.80;4.40;;;;;;;41.19;30.97;100383.98;105009;1264;62839;-62
2023/08/05 09:18:15;;;;;;;5.30;4.00;;;;;;;41.19;30.49;100387.04;104842;1260;61281;-63
2023/08/05 09:20:42;;;;;;;4.60;4.10;;;;;;;41.02;30.44;100382.23;104912;1260;61260;-63
2023/08/05 09:23:10;;;;;;;6.20;3.90;;;;;;;40.75;30.20;100378.94;104742;1263;66070;-67
2023/08/05 09:25:40;;;;;;;5.30;4.50;;;;;;;40.39;30.76;100384.84;104488;1266;65795;-63
2023/08/05 09:28:08;;;;;;;5.10;4.20;;;;;;;40.02;30.98;100382.98;104766;1266;64498;-62
2023/08/05 09:30:37;;;;;;;;;;;;;;;39.97;31.14;100380.20;104843;1260;61274;-63
2023/08/05 09:33:04;;;;;;;7.40;4.20;;;;;;;39.92;31.61;100384.92;105407;1262;61256;-67
2023/08/05 09:35:32;;;;;;;4.60;4.20;;;;;;;39.94;32.47;100383.46;104713;1261;66810;-63
2023/08/05 09:38:00;;;;;;;5.10;3.90;;;;;;;39.88;32.04;100379.36;104895;1260;67776;-63
2023/08/05 09:40:31;;;;;;;5.10;4.10;;;;;;;39.72;32.33;100375.26;104905;1260;62809;-63
2023/08/05 09:42:59;;;;;;;;;;;;;;;39.57;32.13;100372.08;104827;1264;59953;-67
2023/08/05 09:45:28;;;;;;;4.30;3.90;;;;;;;39.32;31.48;100373.11;104906;1264;61447;-64
2023/08/05 09:48:03;;;;;;;6.10;4.00;;;;;;;39.28;32.15;100368.62;104965;1260;66083;-62
2023/08/05 09:50:36;;;;;;;4.50;3.90;;;;;;;39.57;31.52;100365.61;104776;1260;61358;-65
2023/08/05 09:53:07;;;;;;;6.50;3.70;;;;;;;39.72;30.71;100370.67;104660;1260;64184;-67
2023/08/05 09:55:36;;;;;;;4.80;3.90;;;;;;;39.46;30.23;100366.91;104623;1260;61292;-63
2023/08/05 09:58:07;;;;;;;5.00;4.30;;;;;;;39.10;31.12;100364.92;104769;1265;61222;-63
2023/08/05 10:00:40;;;;;;;4.10;3.70;;;;;;;39.10;32.00;100364.61;104853;1261;65870;-62
2023/08/05 10:03:13;;;;;;;4.30;3.90;;;;;;;39.55;31.74;100361.84;104858;1260;61254;-67
2023/08/05 10:05:43;;;;;;;5.60;4.10;;;;;;;40.20;31.64;100362.58;104582;1260;64122;-65
2023/08/05 10:08:14;;;;;;;5.00;4.30;;;;;;;40.60;30.54;100360.68;104827;1265;61373;-62
2023/08/05 10:10:42;;;;;;;5.60;3.90;;;;;;;40.81;30.02;100355.20;104706;1260;61252;-63
2023/08/05 10:13:14;;;;;;;4.70;3.60;;;;;;;41.08;29.48;100352.16;104804;1261;65759;-68
2023/08/05 10:15:42;;;;;;;5.30;4.00;;;;;;;41.06;29.44;100347.86;104737;1266;61341;-63
2023/08/05 10:18:13;;;;;;;7.30;4.20;;;;;;;40.87;29.82;100347.88;104699;1267;62825;-63
2023/08/05 10:20:39;;;;;;;5.10;3.90;;;;;;;40.47;30.36;100351.86;104637;1259;61364;-62
2023/08/05 10:23:08;;;;;;;5.30;3.90;;;;;;;40.08;31.47;100352.13;105063;1260;61288;-67
2023/08/05 10:25:49;;;;;;;5.60;4.40;;;;;;;39.80;32.70;100347.56;104980;1264;66686;-62
2023/08/05 10:28:25;;;;;;;5.00;3.70;;;;;;;39.73;32.12;100342.29;104787;1268;61267;-62
2023/08/05 10:30:54;;;;;;;4.50;3.80;;;;;;;39.77;32.09;100344.66;105050;1264;62821;-67
2023/08/05 10:33:21;;;;;;;4.20;3.80;;;;;;;39.82;31.48;100342.52;104765;1265;61381;-62
2023/08/05 10:35:49;;;;;;;4.00;3.60;;;;;;;40.09;30.73;100339.27;104890;1263;61527;-62
2023/08/05 10:38:23;;;;;;;4.00;3.60;;;;;;;40.29;29.69;100341.24;104757;1260;64937;-63
2023/08/05 10:40:51;;;;;;;4.90;3.80;;;;;;;40.43;30.07;100342.02;104895;1260;61219;-68
2023/08/05 10:43:31;;;;;;;4.60;3.80;;;;;;;40.54;30.28;100346.90;104753;1260;62859;-63
2023/08/05 10:45:58;;;;;;;4.00;3.60;;;;;;;40.54;29.70;100348.15;104893;1265;61266;-62
2023/08/05 10:48:43;;;;;;;5.10;3.70;;;;;;;40.55;29.53;100349.89;105580;1260;61465;-67
2023/08/05 10:51:11;;;;;;;5.30;3.50;;;;;;;40.58;29.29;100348.41;104884;1263;66098;-62
2023/08/05 10:53:39;;;;;;;4.80;4.00;;;;;;;40.29;28.99;100340.77;104553;1265;61816;-63
2023/08/05 10:56:12;;;;;;;5.50;4.30;;;;;;;39.86;29.47;100336.06;104745;1260;64069;-62
2023/08/05 10:58:47;;;;;;;4.60;4.10;;;;;;;39.63;30.34;100335.80;104896;1266;61269;-66
2023/08/05 11:01:15;;;;;;;4.70;3.80;;;;;;;39.52;30.45;100332.83;104758;1265;61247;-63
2023/08/05 11:03:45;;;;;;;4.10;3.50;;;;;;;39.44;30.48;100331.05;104715;1264;65714;-63
2023/08/05 11:06:20;;;;;;;4.10;3.60;;;;;;;39.48;30.21;100326.34;104956;1264;61275;-68
2023/08/05 11:08:48;;;;;;;4.30;3.80;;;;;;;39.60;31.45;100324.48;104468;1265;62848;-62
2023/08/05 11:11:15;;;;;;;6.50;3.70;;;;;;;39.97;31.07;100325.29;104839;1261;62836;-62
2023/08/05 11:13:48;;;;;;;4.20;3.80;;;;;;;40.33;30.56;100324.25;104915;1263;61222;-62
2023/08/05 11:16:16;;;;;;;5.50;4.00;;;;;;;40.52;29.57;100321.61;105187;1260;64843;-68